Terminal Aerodrome Forecast
Issued by NWS Detroit/Pontiac, MI

Current Version | Previous Version | Text Only | Print | Product List | Glossary On
Versions: 1 2 3 4 5 6 7 8 9 10 11 12 13 14 15 16 17 18 19 20
627
FTUS43 KDTX 241730
TAFFNT
TAF
KFNT 241730Z 2418/2518 27014G22KT P6SM BKN050
      TEMPO 2418/2421 6SM -SHRA OVC030
     FM250100 26006KT P6SM SCT050
     FM251400 25016G26KT P6SM BKN045=

USA.gov is the U.S. government's official web portal to all federal, state and local government web resources and services.